This is the latest recevied weather packets stored in our database for station/object SP2CDN-10. If no packets are shown the sender has not sent any weather packets the latest 10 day(s).
| Time | Temp. | Humidity | Pressure | Rain* | Wind** | Luminosity | Snow |
|---|---|---|---|---|---|---|---|
| 1777770323 | 13.89° C | 45% | 1015.3 hPa | - | - | - | - |
| 1777768041 | 13.89° C | 46% | 1015.6 hPa | - | - | - | - |
| 1777765756 | 14.44° C | 43% | 1015.7 hPa | - | - | - | - |
| 1777763475 | 15.56° C | 42% | 1015.7 hPa | - | - | - | - |
| 1777761191 | 16.11° C | 41% | 1016 hPa | - | - | - | - |
| 1777758910 | 16.11° C | 39% | 1016.2 hPa | - | - | - | - |
| 1777756628 | 16.11° C | 39% | 1016.3 hPa | - | - | - | - |
| 1777754347 | 17.78° C | 35% | 1016.3 hPa | - | - | - | - |
| 1777752065 | 18.89° C | 33% | 1016.4 hPa | - | - | - | - |
| 1777749783 | 19.44° C | 31% | 1016.6 hPa | - | - | - | - |
| 1777747502 | 21.11° C | 29% | 1016.5 hPa | - | - | - | - |
| 1777745220 | 22.22° C | 26% | 1016.3 hPa | - | - | - | - |
| 1777742939 | 25.56° C | 21% | 1016.4 hPa | - | - | - | - |
| 1777740657 | 28.89° C | 16% | 1016.5 hPa | - | - | - | - |
| 1777738376 | 30.56° C | 15% | 1016.9 hPa | - | - | - | - |
| 1777736094 | 32.22° C | 14% | 1017.5 hPa | - | - | - | - |
| 1777733812 | 30.56° C | 15% | 1017.9 hPa | - | - | - | - |
| 1777731530 | 32.78° C | 13% | 1018.4 hPa | - | - | - | - |
| 1777729249 | 33.33° C | 12% | 1018.7 hPa | - | - | - | - |
| 1777726967 | 27.78° C | 16% | 1019.2 hPa | - | - | - | - |
| 1777724685 | 31.11° C | 13% | 1019.7 hPa | - | - | - | - |
| 1777722403 | 27.22° C | 16% | 1020.3 hPa | - | - | - | - |
| 1777721029 | 27.22° C | 17% | 1020.4 hPa | - | - | - | - |
| 1777718747 | 26.11° C | 20% | 1020.9 hPa | - | - | - | - |
| 1777716466 | 26.11° C | 21% | 1021.3 hPa | - | - | - | - |
* Rain since midnight (hover to see other rain measurements)
** Current wind speed in m/s (hover to see current wind gust speed)